sensor_id;sensor_type;location;lat;lon;timestamp;temperature;humidity
49222;DHT22;35047;37.588;-122.048;2022-10-17T00:00:45;22.70;74.70
49222;DHT22;35047;37.588;-122.048;2022-10-17T00:03:12;22.70;74.60
49222;DHT22;35047;37.588;-122.048;2022-10-17T00:05:45;22.60;75.10
49222;DHT22;35047;37.588;-122.048;2022-10-17T00:08:15;22.60;75.40
49222;DHT22;35047;37.588;-122.048;2022-10-17T00:10:42;22.50;75.60
49222;DHT22;35047;37.588;-122.048;2022-10-17T00:13:09;22.40;75.20
49222;DHT22;35047;37.588;-122.048;2022-10-17T00:15:36;22.30;76.20
49222;DHT22;35047;37.588;-122.048;2022-10-17T00:18:03;22.30;76.50
49222;DHT22;35047;37.588;-122.048;2022-10-17T00:20:29;22.40;76.10
49222;DHT22;35047;37.588;-122.048;2022-10-17T00:22:57;22.30;76.20
49222;DHT22;35047;37.588;-122.048;2022-10-17T00:25:24;22.20;76.30
49222;DHT22;35047;37.588;-122.048;2022-10-17T00:27:51;22.10;76.80
49222;DHT22;35047;37.588;-122.048;2022-10-17T00:30:19;22.10;76.60
49222;DHT22;35047;37.588;-122.048;2022-10-17T00:32:46;22.20;76.90
49222;DHT22;35047;37.588;-122.048;2022-10-17T00:35:13;22.10;76.50
49222;DHT22;35047;37.588;-122.048;2022-10-17T00:37:40;22.10;76.30
49222;DHT22;35047;37.588;-122.048;2022-10-17T00:40:07;22.10;76.40
49222;DHT22;35047;37.588;-122.048;2022-10-17T00:42:33;22.10;76.30
49222;DHT22;35047;37.588;-122.048;2022-10-17T00:45:14;22.10;76.00
49222;DHT22;35047;37.588;-122.048;2022-10-17T00:47:42;22.10;76.20
49222;DHT22;35047;37.588;-122.048;2022-10-17T00:50:11;22.00;76.10
49222;DHT22;35047;37.588;-122.048;2022-10-17T00:52:39;22.00;75.70
49222;DHT22;35047;37.588;-122.048;2022-10-17T00:55:32;21.90;76.10
49222;DHT22;35047;37.588;-122.048;2022-10-17T00:58:00;21.90;76.20
49222;DHT22;35047;37.588;-122.048;2022-10-17T01:00:28;21.80;76.10
49222;DHT22;35047;37.588;-122.048;2022-10-17T01:02:54;21.80;75.90
49222;DHT22;35047;37.588;-122.048;2022-10-17T01:05:21;21.70;76.00
49222;DHT22;35047;37.588;-122.048;2022-10-17T01:07:50;21.70;76.00
49222;DHT22;35047;37.588;-122.048;2022-10-17T01:10:18;21.70;76.30
49222;DHT22;35047;37.588;-122.048;2022-10-17T01:12:54;21.60;76.80
49222;DHT22;35047;37.588;-122.048;2022-10-17T01:27:07;21.30;78.90
49222;DHT22;35047;37.588;-122.048;2022-10-17T01:32:58;21.20;79.80
49222;DHT22;35047;37.588;-122.048;2022-10-17T01:35:51;21.00;79.70
49222;DHT22;35047;37.588;-122.048;2022-10-17T01:38:46;20.90;80.00
49222;DHT22;35047;37.588;-122.048;2022-10-17T01:43:58;20.80;80.70
49222;DHT22;35047;37.588;-122.048;2022-10-17T01:46:35;20.90;80.70
49222;DHT22;35047;37.588;-122.048;2022-10-17T01:49:05;20.90;80.40
49222;DHT22;35047;37.588;-122.048;2022-10-17T01:56:42;21.10;80.80
49222;DHT22;35047;37.588;-122.048;2022-10-17T01:59:37;21.00;79.90
49222;DHT22;35047;37.588;-122.048;2022-10-17T02:02:05;21.00;80.10
49222;DHT22;35047;37.588;-122.048;2022-10-17T02:04:34;20.90;80.60
49222;DHT22;35047;37.588;-122.048;2022-10-17T02:07:09;20.90;80.40
49222;DHT22;35047;37.588;-122.048;2022-10-17T02:09:38;20.90;79.70
49222;DHT22;35047;37.588;-122.048;2022-10-17T02:12:43;20.80;80.50
49222;DHT22;35047;37.588;-122.048;2022-10-17T02:21:07;20.80;80.20
49222;DHT22;35047;37.588;-122.048;2022-10-17T02:26:43;20.50;80.60
49222;DHT22;35047;37.588;-122.048;2022-10-17T02:29:19;20.40;81.30
49222;DHT22;35047;37.588;-122.048;2022-10-17T02:34:41;20.40;80.70
49222;DHT22;35047;37.588;-122.048;2022-10-17T02:37:10;20.40;81.10
49222;DHT22;35047;37.588;-122.048;2022-10-17T02:39:39;20.40;80.70
49222;DHT22;35047;37.588;-122.048;2022-10-17T02:42:09;20.40;80.80
49222;DHT22;35047;37.588;-122.048;2022-10-17T02:44:42;20.50;80.60
49222;DHT22;35047;37.588;-122.048;2022-10-17T02:49:55;20.50;81.20
49222;DHT22;35047;37.588;-122.048;2022-10-17T02:52:38;20.50;80.80
49222;DHT22;35047;37.588;-122.048;2022-10-17T02:55:23;20.50;80.80
49222;DHT22;35047;37.588;-122.048;2022-10-17T02:57:54;20.40;80.80
49222;DHT22;35047;37.588;-122.048;2022-10-17T03:00:23;20.40;80.60
49222;DHT22;35047;37.588;-122.048;2022-10-17T03:02:52;20.20;81.10
49222;DHT22;35047;37.588;-122.048;2022-10-17T03:05:22;20.20;81.10
49222;DHT22;35047;37.588;-122.048;2022-10-17T03:07:49;20.20;81.00
49222;DHT22;35047;37.588;-122.048;2022-10-17T03:10:17;19.90;81.00
49222;DHT22;35047;37.588;-122.048;2022-10-17T03:12:43;19.70;82.10
49222;DHT22;35047;37.588;-122.048;2022-10-17T03:15:10;19.70;81.40
49222;DHT22;35047;37.588;-122.048;2022-10-17T03:17:37;19.40;81.90
49222;DHT22;35047;37.588;-122.048;2022-10-17T03:20:04;19.00;83.70
49222;DHT22;35047;37.588;-122.048;2022-10-17T03:22:32;18.80;84.70
49222;DHT22;35047;37.588;-122.048;2022-10-17T03:24:58;18.70;85.60
49222;DHT22;35047;37.588;-122.048;2022-10-17T03:27:25;18.90;84.50
49222;DHT22;35047;37.588;-122.048;2022-10-17T03:29:52;18.60;84.80
49222;DHT22;35047;37.588;-122.048;2022-10-17T03:32:18;18.40;86.00
49222;DHT22;35047;37.588;-122.048;2022-10-17T03:34:46;18.60;86.20
49222;DHT22;35047;37.588;-122.048;2022-10-17T03:37:12;18.70;85.30
49222;DHT22;35047;37.588;-122.048;2022-10-17T03:39:39;18.50;85.40
49222;DHT22;35047;37.588;-122.048;2022-10-17T03:42:06;18.40;86.10
49222;DHT22;35047;37.588;-122.048;2022-10-17T03:44:33;18.40;86.20
49222;DHT22;35047;37.588;-122.048;2022-10-17T03:47:01;18.60;86.00
49222;DHT22;35047;37.588;-122.048;2022-10-17T03:49:27;18.50;85.80
49222;DHT22;35047;37.588;-122.048;2022-10-17T03:51:54;18.70;85.50
49222;DHT22;35047;37.588;-122.048;2022-10-17T03:54:21;18.80;84.80
49222;DHT22;35047;37.588;-122.048;2022-10-17T03:56:49;19.00;84.30
49222;DHT22;35047;37.588;-122.048;2022-10-17T03:59:16;18.90;84.50
49222;DHT22;35047;37.588;-122.048;2022-10-17T04:01:42;18.70;84.80
49222;DHT22;35047;37.588;-122.048;2022-10-17T04:04:10;18.70;85.10
49222;DHT22;35047;37.588;-122.048;2022-10-17T04:06:37;18.80;84.50
49222;DHT22;35047;37.588;-122.048;2022-10-17T04:09:05;18.80;84.10
49222;DHT22;35047;37.588;-122.048;2022-10-17T04:11:32;18.70;84.30
49222;DHT22;35047;37.588;-122.048;2022-10-17T04:13:59;18.40;85.00
49222;DHT22;35047;37.588;-122.048;2022-10-17T04:16:26;18.20;85.80
49222;DHT22;35047;37.588;-122.048;2022-10-17T04:18:54;18.00;85.70
49222;DHT22;35047;37.588;-122.048;2022-10-17T04:21:22;18.00;87.00
49222;DHT22;35047;37.588;-122.048;2022-10-17T04:23:58;17.90;86.90
49222;DHT22;35047;37.588;-122.048;2022-10-17T04:26:24;17.70;87.60
49222;DHT22;35047;37.588;-122.048;2022-10-17T04:28:52;17.90;86.80
49222;DHT22;35047;37.588;-122.048;2022-10-17T04:31:19;17.90;87.10
49222;DHT22;35047;37.588;-122.048;2022-10-17T04:33:49;17.90;87.40
49222;DHT22;35047;37.588;-122.048;2022-10-17T04:36:19;18.00;86.90
49222;DHT22;35047;37.588;-122.048;2022-10-17T04:38:45;18.10;86.40
49222;DHT22;35047;37.588;-122.048;2022-10-17T04:41:15;18.00;86.10
49222;DHT22;35047;37.588;-122.048;2022-10-17T04:43:42;17.60;87.90
49222;DHT22;35047;37.588;-122.048;2022-10-17T04:46:11;17.60;89.00
49222;DHT22;35047;37.588;-122.048;2022-10-17T04:48:39;17.70;87.40
49222;DHT22;35047;37.588;-122.048;2022-10-17T04:51:09;17.40;90.00
49222;DHT22;35047;37.588;-122.048;2022-10-17T04:53:38;17.60;88.60
49222;DHT22;35047;37.588;-122.048;2022-10-17T04:56:17;17.60;88.50
49222;DHT22;35047;37.588;-122.048;2022-10-17T04:58:45;17.50;88.20
49222;DHT22;35047;37.588;-122.048;2022-10-17T05:01:14;17.50;89.30
49222;DHT22;35047;37.588;-122.048;2022-10-17T05:03:41;17.70;88.30
49222;DHT22;35047;37.588;-122.048;2022-10-17T05:06:11;17.80;88.10
49222;DHT22;35047;37.588;-122.048;2022-10-17T05:08:38;17.80;87.80
49222;DHT22;35047;37.588;-122.048;2022-10-17T05:11:13;17.90;87.50
49222;DHT22;35047;37.588;-122.048;2022-10-17T05:13:41;17.80;87.50
49222;DHT22;35047;37.588;-122.048;2022-10-17T05:16:08;18.00;87.30
49222;DHT22;35047;37.588;-122.048;2022-10-17T05:18:36;18.00;87.10
49222;DHT22;35047;37.588;-122.048;2022-10-17T05:21:03;18.00;87.10
49222;DHT22;35047;37.588;-122.048;2022-10-17T05:23:30;18.00;86.40
49222;DHT22;35047;37.588;-122.048;2022-10-17T05:25:57;18.00;86.60
49222;DHT22;35047;37.588;-122.048;2022-10-17T05:28:24;18.00;86.40
49222;DHT22;35047;37.588;-122.048;2022-10-17T05:30:50;17.90;87.00
49222;DHT22;35047;37.588;-122.048;2022-10-17T05:33:17;17.90;86.90
49222;DHT22;35047;37.588;-122.048;2022-10-17T05:35:44;17.90;86.90
49222;DHT22;35047;37.588;-122.048;2022-10-17T05:38:11;17.90;86.80
49222;DHT22;35047;37.588;-122.048;2022-10-17T05:40:37;18.00;86.70
49222;DHT22;35047;37.588;-122.048;2022-10-17T05:43:04;17.90;86.40
49222;DHT22;35047;37.588;-122.048;2022-10-17T05:45:31;17.90;86.40
49222;DHT22;35047;37.588;-122.048;2022-10-17T05:47:57;17.80;86.70
49222;DHT22;35047;37.588;-122.048;2022-10-17T05:50:24;17.80;86.50
49222;DHT22;35047;37.588;-122.048;2022-10-17T05:52:54;17.80;86.60
49222;DHT22;35047;37.588;-122.048;2022-10-17T05:55:21;17.80;86.30
49222;DHT22;35047;37.588;-122.048;2022-10-17T05:57:49;17.70;86.70
49222;DHT22;35047;37.588;-122.048;2022-10-17T06:00:18;17.70;86.70
49222;DHT22;35047;37.588;-122.048;2022-10-17T06:02:46;17.50;86.80
49222;DHT22;35047;37.588;-122.048;2022-10-17T06:05:14;17.20;87.50
49222;DHT22;35047;37.588;-122.048;2022-10-17T06:07:41;17.00;89.90
49222;DHT22;35047;37.588;-122.048;2022-10-17T06:10:08;17.20;89.50
49222;DHT22;35047;37.588;-122.048;2022-10-17T06:12:38;17.40;89.20
49222;DHT22;35047;37.588;-122.048;2022-10-17T06:15:05;17.30;89.10
49222;DHT22;35047;37.588;-122.048;2022-10-17T06:17:32;17.30;89.10
49222;DHT22;35047;37.588;-122.048;2022-10-17T06:20:02;17.20;89.40
49222;DHT22;35047;37.588;-122.048;2022-10-17T06:22:28;17.30;89.40
49222;DHT22;35047;37.588;-122.048;2022-10-17T06:24:56;17.20;88.90
49222;DHT22;35047;37.588;-122.048;2022-10-17T06:27:22;16.90;89.60
49222;DHT22;35047;37.588;-122.048;2022-10-17T06:29:49;16.90;90.20
49222;DHT22;35047;37.588;-122.048;2022-10-17T06:32:16;17.10;89.70
49222;DHT22;35047;37.588;-122.048;2022-10-17T06:34:42;17.10;89.80
49222;DHT22;35047;37.588;-122.048;2022-10-17T06:37:09;17.10;89.00
49222;DHT22;35047;37.588;-122.048;2022-10-17T06:39:35;16.90;89.70
49222;DHT22;35047;37.588;-122.048;2022-10-17T06:42:03;17.00;90.20
49222;DHT22;35047;37.588;-122.048;2022-10-17T06:44:30;17.00;90.00
49222;DHT22;35047;37.588;-122.048;2022-10-17T06:46:58;16.90;90.00
49222;DHT22;35047;37.588;-122.048;2022-10-17T06:49:26;17.00;90.20
49222;DHT22;35047;37.588;-122.048;2022-10-17T06:51:53;17.10;90.20
49222;DHT22;35047;37.588;-122.048;2022-10-17T06:54:19;17.10;90.10
49222;DHT22;35047;37.588;-122.048;2022-10-17T06:56:46;17.20;90.10
49222;DHT22;35047;37.588;-122.048;2022-10-17T06:59:13;17.20;89.50
49222;DHT22;35047;37.588;-122.048;2022-10-17T07:01:40;17.20;89.80
49222;DHT22;35047;37.588;-122.048;2022-10-17T07:04:07;17.30;90.00
49222;DHT22;35047;37.588;-122.048;2022-10-17T07:06:34;17.30;89.80
49222;DHT22;35047;37.588;-122.048;2022-10-17T07:09:01;17.40;89.90
49222;DHT22;35047;37.588;-122.048;2022-10-17T07:11:28;17.30;89.70
49222;DHT22;35047;37.588;-122.048;2022-10-17T07:13:54;17.30;90.00
49222;DHT22;35047;37.588;-122.048;2022-10-17T07:16:21;17.20;89.80
49222;DHT22;35047;37.588;-122.048;2022-10-17T07:18:49;17.10;90.00
49222;DHT22;35047;37.588;-122.048;2022-10-17T07:21:16;16.90;90.00
49222;DHT22;35047;37.588;-122.048;2022-10-17T07:23:43;16.80;90.50
49222;DHT22;35047;37.588;-122.048;2022-10-17T07:26:14;16.90;90.30
49222;DHT22;35047;37.588;-122.048;2022-10-17T07:28:44;17.00;89.90
49222;DHT22;35047;37.588;-122.048;2022-10-17T07:31:14;17.00;90.00
49222;DHT22;35047;37.588;-122.048;2022-10-17T07:33:42;16.90;89.80
49222;DHT22;35047;37.588;-122.048;2022-10-17T07:36:09;16.90;90.10
49222;DHT22;35047;37.588;-122.048;2022-10-17T07:38:36;16.80;89.10
49222;DHT22;35047;37.588;-122.048;2022-10-17T07:41:06;16.60;90.30
49222;DHT22;35047;37.588;-122.048;2022-10-17T07:43:34;16.60;90.40
49222;DHT22;35047;37.588;-122.048;2022-10-17T07:46:02;16.50;90.20
49222;DHT22;35047;37.588;-122.048;2022-10-17T07:48:30;16.50;90.80
49222;DHT22;35047;37.588;-122.048;2022-10-17T07:50:57;16.60;90.50
49222;DHT22;35047;37.588;-122.048;2022-10-17T07:53:27;16.50;90.70
49222;DHT22;35047;37.588;-122.048;2022-10-17T07:55:53;16.60;90.40
49222;DHT22;35047;37.588;-122.048;2022-10-17T07:58:19;16.70;90.00
49222;DHT22;35047;37.588;-122.048;2022-10-17T08:00:48;16.70;89.80
49222;DHT22;35047;37.588;-122.048;2022-10-17T08:03:16;16.70;90.00
49222;DHT22;35047;37.588;-122.048;2022-10-17T08:05:43;16.70;89.40
49222;DHT22;35047;37.588;-122.048;2022-10-17T08:08:10;16.60;89.00
49222;DHT22;35047;37.588;-122.048;2022-10-17T08:10:37;16.50;90.20
49222;DHT22;35047;37.588;-122.048;2022-10-17T08:13:04;16.60;90.00
49222;DHT22;35047;37.588;-122.048;2022-10-17T08:15:32;16.60;90.10
49222;DHT22;35047;37.588;-122.048;2022-10-17T08:17:59;16.60;90.00
49222;DHT22;35047;37.588;-122.048;2022-10-17T08:20:26;16.60;90.20
49222;DHT22;35047;37.588;-122.048;2022-10-17T08:22:54;16.60;90.20
49222;DHT22;35047;37.588;-122.048;2022-10-17T08:25:21;16.70;90.20
49222;DHT22;35047;37.588;-122.048;2022-10-17T08:27:48;16.60;90.00
49222;DHT22;35047;37.588;-122.048;2022-10-17T08:30:14;16.50;90.20
49222;DHT22;35047;37.588;-122.048;2022-10-17T08:32:41;16.50;90.10
49222;DHT22;35047;37.588;-122.048;2022-10-17T08:35:08;16.40;90.40
49222;DHT22;35047;37.588;-122.048;2022-10-17T08:37:34;16.30;89.90
49222;DHT22;35047;37.588;-122.048;2022-10-17T08:40:01;16.30;90.40
49222;DHT22;35047;37.588;-122.048;2022-10-17T08:43:41;16.40;90.60
49222;DHT22;35047;37.588;-122.048;2022-10-17T08:46:02;16.40;90.50
49222;DHT22;35047;37.588;-122.048;2022-10-17T08:48:40;16.40;90.20
49222;DHT22;35047;37.588;-122.048;2022-10-17T08:51:21;16.30;90.30
49222;DHT22;35047;37.588;-122.048;2022-10-17T08:56:26;16.30;90.60
49222;DHT22;35047;37.588;-122.048;2022-10-17T08:58:54;16.20;90.10
49222;DHT22;35047;37.588;-122.048;2022-10-17T09:01:51;16.10;90.30
49222;DHT22;35047;37.588;-122.048;2022-10-17T09:10:12;16.10;90.80
49222;DHT22;35047;37.588;-122.048;2022-10-17T09:18:23;15.80;91.20
49222;DHT22;35047;37.588;-122.048;2022-10-17T09:20:55;15.80;90.60
49222;DHT22;35047;37.588;-122.048;2022-10-17T09:23:31;15.60;91.30
49222;DHT22;35047;37.588;-122.048;2022-10-17T09:25:59;15.60;91.60
49222;DHT22;35047;37.588;-122.048;2022-10-17T09:28:33;15.70;91.40
49222;DHT22;35047;37.588;-122.048;2022-10-17T09:31:11;15.90;91.20
49222;DHT22;35047;37.588;-122.048;2022-10-17T09:33:40;15.90;91.00
49222;DHT22;35047;37.588;-122.048;2022-10-17T09:36:14;16.00;90.60
49222;DHT22;35047;37.588;-122.048;2022-10-17T09:39:10;16.00;90.40
49222;DHT22;35047;37.588;-122.048;2022-10-17T09:41:42;16.00;90.30
49222;DHT22;35047;37.588;-122.048;2022-10-17T09:44:18;16.00;90.20
49222;DHT22;35047;37.588;-122.048;2022-10-17T09:47:09;15.80;90.20
49222;DHT22;35047;37.588;-122.048;2022-10-17T09:49:42;15.60;91.10
49222;DHT22;35047;37.588;-122.048;2022-10-17T09:55:36;15.50;90.90
49222;DHT22;35047;37.588;-122.048;2022-10-17T09:58:02;15.60;91.20
49222;DHT22;35047;37.588;-122.048;2022-10-17T10:00:31;15.70;91.20
49222;DHT22;35047;37.588;-122.048;2022-10-17T10:03:21;15.80;90.80
49222;DHT22;35047;37.588;-122.048;2022-10-17T10:05:59;15.80;91.00
49222;DHT22;35047;37.588;-122.048;2022-10-17T10:08:49;15.80;90.80
49222;DHT22;35047;37.588;-122.048;2022-10-17T10:11:15;15.90;90.70
49222;DHT22;35047;37.588;-122.048;2022-10-17T10:13:45;16.00;90.40
49222;DHT22;35047;37.588;-122.048;2022-10-17T10:16:19;16.00;90.70
49222;DHT22;35047;37.588;-122.048;2022-10-17T10:18:47;16.00;90.60
49222;DHT22;35047;37.588;-122.048;2022-10-17T10:21:20;16.10;90.80
49222;DHT22;35047;37.588;-122.048;2022-10-17T10:24:03;16.00;90.70
49222;DHT22;35047;37.588;-122.048;2022-10-17T10:26:46;16.00;90.60
49222;DHT22;35047;37.588;-122.048;2022-10-17T10:29:40;16.00;90.60
49222;DHT22;35047;37.588;-122.048;2022-10-17T10:32:32;15.80;90.90
49222;DHT22;35047;37.588;-122.048;2022-10-17T10:35:24;15.50;91.20
49222;DHT22;35047;37.588;-122.048;2022-10-17T10:37:57;15.60;91.30
49222;DHT22;35047;37.588;-122.048;2022-10-17T10:40:44;15.50;90.90
49222;DHT22;35047;37.588;-122.048;2022-10-17T10:43:39;15.50;91.20
49222;DHT22;35047;37.588;-122.048;2022-10-17T10:46:18;15.50;91.20
49222;DHT22;35047;37.588;-122.048;2022-10-17T10:49:01;15.40;91.20
49222;DHT22;35047;37.588;-122.048;2022-10-17T10:51:39;15.50;91.10
49222;DHT22;35047;37.588;-122.048;2022-10-17T10:54:19;15.50;91.00
49222;DHT22;35047;37.588;-122.048;2022-10-17T10:56:52;15.40;91.30
49222;DHT22;35047;37.588;-122.048;2022-10-17T11:07:41;15.40;91.30
49222;DHT22;35047;37.588;-122.048;2022-10-17T11:13:21;15.20;91.30
49222;DHT22;35047;37.588;-122.048;2022-10-17T11:15:54;15.20;92.10
49222;DHT22;35047;37.588;-122.048;2022-10-17T11:20:54;15.20;92.00
49222;DHT22;35047;37.588;-122.048;2022-10-17T11:23:38;15.00;92.60
49222;DHT22;35047;37.588;-122.048;2022-10-17T11:26:10;15.10;92.00
49222;DHT22;35047;37.588;-122.048;2022-10-17T11:28:39;14.80;92.50
49222;DHT22;35047;37.588;-122.048;2022-10-17T11:31:09;14.90;92.50
49222;DHT22;35047;37.588;-122.048;2022-10-17T11:36:12;15.00;92.10
49222;DHT22;35047;37.588;-122.048;2022-10-17T11:44:34;15.20;91.60
49222;DHT22;35047;37.588;-122.048;2022-10-17T11:49:43;15.20;91.40
49222;DHT22;35047;37.588;-122.048;2022-10-17T11:54:41;15.30;91.20
49222;DHT22;35047;37.588;-122.048;2022-10-17T11:57:15;15.30;91.10
49222;DHT22;35047;37.588;-122.048;2022-10-17T12:03:02;15.10;90.90
49222;DHT22;35047;37.588;-122.048;2022-10-17T12:06:11;15.00;91.60
49222;DHT22;35047;37.588;-122.048;2022-10-17T12:08:50;14.80;91.90
49222;DHT22;35047;37.588;-122.048;2022-10-17T12:16:55;15.10;91.40
49222;DHT22;35047;37.588;-122.048;2022-10-17T12:19:26;15.10;91.50
49222;DHT22;35047;37.588;-122.048;2022-10-17T12:22:17;15.20;91.20
49222;DHT22;35047;37.588;-122.048;2022-10-17T12:24:54;15.20;91.00
49222;DHT22;35047;37.588;-122.048;2022-10-17T12:27:42;15.20;90.90
49222;DHT22;35047;37.588;-122.048;2022-10-17T12:30:26;15.00;90.70
49222;DHT22;35047;37.588;-122.048;2022-10-17T12:35:23;15.00;91.30
49222;DHT22;35047;37.588;-122.048;2022-10-17T12:40:46;15.00;91.40
49222;DHT22;35047;37.588;-122.048;2022-10-17T12:45:52;15.00;91.40
49222;DHT22;35047;37.588;-122.048;2022-10-17T12:51:17;14.90;91.10
49222;DHT22;35047;37.588;-122.048;2022-10-17T12:56:43;14.70;91.40
49222;DHT22;35047;37.588;-122.048;2022-10-17T12:59:19;14.40;91.60
49222;DHT22;35047;37.588;-122.048;2022-10-17T13:01:48;14.10;93.10
49222;DHT22;35047;37.588;-122.048;2022-10-17T13:04:17;14.40;92.90
49222;DHT22;35047;37.588;-122.048;2022-10-17T13:06:53;14.40;92.70
49222;DHT22;35047;37.588;-122.048;2022-10-17T13:11:52;14.50;92.70
49222;DHT22;35047;37.588;-122.048;2022-10-17T13:14:21;14.50;92.70
49222;DHT22;35047;37.588;-122.048;2022-10-17T13:16:57;14.60;92.60
49222;DHT22;35047;37.588;-122.048;2022-10-17T13:19:28;14.60;92.30
49222;DHT22;35047;37.588;-122.048;2022-10-17T13:21:58;14.60;92.30
49222;DHT22;35047;37.588;-122.048;2022-10-17T13:24:47;14.70;92.00
49222;DHT22;35047;37.588;-122.048;2022-10-17T13:27:31;14.80;91.90
49222;DHT22;35047;37.588;-122.048;2022-10-17T13:30:00;14.80;91.80
49222;DHT22;35047;37.588;-122.048;2022-10-17T13:32:36;14.70;91.90
49222;DHT22;35047;37.588;-122.048;2022-10-17T13:35:12;14.60;92.20
49222;DHT22;35047;37.588;-122.048;2022-10-17T13:37:41;14.60;91.90
49222;DHT22;35047;37.588;-122.048;2022-10-17T13:40:23;14.60;92.20
49222;DHT22;35047;37.588;-122.048;2022-10-17T13:42:52;14.50;92.40
49222;DHT22;35047;37.588;-122.048;2022-10-17T13:45:31;14.60;92.20
49222;DHT22;35047;37.588;-122.048;2022-10-17T13:48:18;14.60;92.20
49222;DHT22;35047;37.588;-122.048;2022-10-17T13:50:48;14.70;92.20
49222;DHT22;35047;37.588;-122.048;2022-10-17T13:53:45;14.70;92.50
49222;DHT22;35047;37.588;-122.048;2022-10-17T13:56:23;14.50;92.60
49222;DHT22;35047;37.588;-122.048;2022-10-17T13:58:57;14.60;92.20
49222;DHT22;35047;37.588;-122.048;2022-10-17T14:01:27;14.40;92.40
49222;DHT22;35047;37.588;-122.048;2022-10-17T14:03:54;14.10;92.90
49222;DHT22;35047;37.588;-122.048;2022-10-17T14:06:28;14.00;93.30
49222;DHT22;35047;37.588;-122.048;2022-10-17T14:09:00;14.10;93.50
49222;DHT22;35047;37.588;-122.048;2022-10-17T14:11:34;14.10;93.00
49222;DHT22;35047;37.588;-122.048;2022-10-17T14:14:05;14.00;93.50
49222;DHT22;35047;37.588;-122.048;2022-10-17T14:16:40;14.00;92.90
49222;DHT22;35047;37.588;-122.048;2022-10-17T14:21:51;14.30;93.10
49222;DHT22;35047;37.588;-122.048;2022-10-17T14:26:53;14.10;92.70
49222;DHT22;35047;37.588;-122.048;2022-10-17T14:29:48;14.00;93.20
49222;DHT22;35047;37.588;-122.048;2022-10-17T14:32:15;14.10;93.30
49222;DHT22;35047;37.588;-122.048;2022-10-17T14:34:43;14.40;92.90
49222;DHT22;35047;37.588;-122.048;2022-10-17T14:39:49;14.50;92.60
49222;DHT22;35047;37.588;-122.048;2022-10-17T14:42:21;14.20;92.60
49222;DHT22;35047;37.588;-122.048;2022-10-17T14:44:49;14.10;93.70
49222;DHT22;35047;37.588;-122.048;2022-10-17T14:47:23;14.20;93.30
49222;DHT22;35047;37.588;-122.048;2022-10-17T14:50:06;14.20;94.20
49222;DHT22;35047;37.588;-122.048;2022-10-17T14:52:34;14.30;93.90
49222;DHT22;35047;37.588;-122.048;2022-10-17T14:55:24;14.50;93.50
49222;DHT22;35047;37.588;-122.048;2022-10-17T14:57:52;14.70;93.50
49222;DHT22;35047;37.588;-122.048;2022-10-17T15:00:20;14.70;93.10
49222;DHT22;35047;37.588;-122.048;2022-10-17T15:02:48;14.80;93.60
49222;DHT22;35047;37.588;-122.048;2022-10-17T15:05:15;14.80;93.40
49222;DHT22;35047;37.588;-122.048;2022-10-17T15:07:42;14.70;94.00
49222;DHT22;35047;37.588;-122.048;2022-10-17T15:10:35;14.80;93.60
49222;DHT22;35047;37.588;-122.048;2022-10-17T15:13:03;15.00;93.80
49222;DHT22;35047;37.588;-122.048;2022-10-17T15:15:30;15.10;93.60
49222;DHT22;35047;37.588;-122.048;2022-10-17T15:17:57;15.00;93.90
49222;DHT22;35047;37.588;-122.048;2022-10-17T15:20:25;15.20;94.40
49222;DHT22;35047;37.588;-122.048;2022-10-17T15:22:57;15.40;94.10
49222;DHT22;35047;37.588;-122.048;2022-10-17T15:25:24;15.50;93.40
49222;DHT22;35047;37.588;-122.048;2022-10-17T15:27:52;15.50;94.30
49222;DHT22;35047;37.588;-122.048;2022-10-17T15:30:25;15.70;94.10
49222;DHT22;35047;37.588;-122.048;2022-10-17T15:32:53;15.90;93.80
49222;DHT22;35047;37.588;-122.048;2022-10-17T15:35:21;15.80;94.10
49222;DHT22;35047;37.588;-122.048;2022-10-17T15:37:48;16.00;94.70
49222;DHT22;35047;37.588;-122.048;2022-10-17T15:40:22;16.20;94.30
49222;DHT22;35047;37.588;-122.048;2022-10-17T15:42:48;16.40;94.10
49222;DHT22;35047;37.588;-122.048;2022-10-17T15:45:17;16.70;94.10
49222;DHT22;35047;37.588;-122.048;2022-10-17T15:47:53;16.80;93.70
49222;DHT22;35047;37.588;-122.048;2022-10-17T15:50:21;16.90;93.60
49222;DHT22;35047;37.588;-122.048;2022-10-17T15:52:48;16.90;93.90
49222;DHT22;35047;37.588;-122.048;2022-10-17T15:55:18;17.10;93.60
49222;DHT22;35047;37.588;-122.048;2022-10-17T15:57:46;17.10;93.20
49222;DHT22;35047;37.588;-122.048;2022-10-17T16:00:16;16.90;93.60
49222;DHT22;35047;37.588;-122.048;2022-10-17T16:02:44;17.20;93.50
49222;DHT22;35047;37.588;-122.048;2022-10-17T16:05:19;17.40;93.10
49222;DHT22;35047;37.588;-122.048;2022-10-17T16:07:52;17.50;92.70
49222;DHT22;35047;37.588;-122.048;2022-10-17T16:10:20;17.70;92.90
49222;DHT22;35047;37.588;-122.048;2022-10-17T16:12:47;17.80;92.60
49222;DHT22;35047;37.588;-122.048;2022-10-17T16:15:25;17.90;92.20
49222;DHT22;35047;37.588;-122.048;2022-10-17T16:17:54;17.90;92.30
49222;DHT22;35047;37.588;-122.048;2022-10-17T16:20:22;17.90;92.30
49222;DHT22;35047;37.588;-122.048;2022-10-17T16:22:50;18.10;92.60
49222;DHT22;35047;37.588;-122.048;2022-10-17T16:25:26;18.30;92.40
49222;DHT22;35047;37.588;-122.048;2022-10-17T16:27:55;18.50;92.40
49222;DHT22;35047;37.588;-122.048;2022-10-17T16:30:24;18.80;92.60
49222;DHT22;35047;37.588;-122.048;2022-10-17T16:32:52;19.30;91.70
49222;DHT22;35047;37.588;-122.048;2022-10-17T16:35:21;19.50;91.60
49222;DHT22;35047;37.588;-122.048;2022-10-17T16:37:48;19.60;90.10
49222;DHT22;35047;37.588;-122.048;2022-10-17T16:40:16;19.60;90.40
49222;DHT22;35047;37.588;-122.048;2022-10-17T16:42:43;19.90;90.50
49222;DHT22;35047;37.588;-122.048;2022-10-17T16:45:14;20.20;89.90
49222;DHT22;35047;37.588;-122.048;2022-10-17T16:47:41;20.60;89.10
49222;DHT22;35047;37.588;-122.048;2022-10-17T16:50:08;20.80;88.40
49222;DHT22;35047;37.588;-122.048;2022-10-17T16:52:35;20.80;86.80
49222;DHT22;35047;37.588;-122.048;2022-10-17T16:55:02;21.00;86.90
49222;DHT22;35047;37.588;-122.048;2022-10-17T16:57:29;21.30;86.90
49222;DHT22;35047;37.588;-122.048;2022-10-17T16:59:55;21.60;86.20
49222;DHT22;35047;37.588;-122.048;2022-10-17T17:02:22;21.80;84.90
49222;DHT22;35047;37.588;-122.048;2022-10-17T17:04:48;22.10;84.20
49222;DHT22;35047;37.588;-122.048;2022-10-17T17:07:15;22.40;82.50